Time;durP1;ratioP1;P1;durP2;ratioP2;P2;SDS_P1;SDS_P2;PMS_P1;PMS_P2;Temp;Humidity;BMP_temperature;BMP_pressure;BME280_temperature;BME280_humidity;BME280_pressure;Samples;Min_cycle;Max_cycle;Signal;HPM_P1;HPM_P2
2022/01/09 00:02:10;;;;;;;1.10;0.50;;;4.70;98.10;;;;;;5138434;27;20175;-45
2022/01/09 00:04:36;;;;;;;0.90;0.50;;;4.70;98.10;;;;;;5138653;27;20170;-45
2022/01/09 00:07:02;;;;;;;0.90;0.43;;;4.80;98.20;;;;;;5139017;27;20429;-45
2022/01/09 00:09:28;;;;;;;0.73;0.40;;;4.80;98.30;;;;;;5139638;27;20187;-45
2022/01/09 00:11:54;;;;;;;1.00;0.50;;;4.80;98.40;;;;;;5138410;27;20278;-44
2022/01/09 00:14:19;;;;;;;1.10;0.60;;;4.80;98.50;;;;;;5138443;27;20428;-44
2022/01/09 00:16:45;;;;;;;0.80;0.40;;;4.70;98.60;;;;;;5137882;27;20654;-44
2022/01/09 00:19:10;;;;;;;0.70;0.40;;;4.70;98.70;;;;;;5138561;27;20185;-45
2022/01/09 00:21:36;;;;;;;0.90;0.60;;;4.70;98.80;;;;;;5138711;27;20265;-44
2022/01/09 00:24:02;;;;;;;0.70;0.40;;;4.80;98.70;;;;;;5138501;27;20198;-45
2022/01/09 00:26:27;;;;;;;0.67;0.33;;;4.80;98.70;;;;;;5139360;27;20561;-45
2022/01/09 00:28:53;;;;;;;0.90;0.50;;;4.70;98.60;;;;;;5139687;27;20197;-45
2022/01/09 00:31:18;;;;;;;0.90;0.50;;;4.70;98.70;;;;;;5139242;27;20659;-45
2022/01/09 00:33:45;;;;;;;0.90;0.50;;;4.60;98.80;;;;;;5140026;27;20187;-45
2022/01/09 00:36:10;;;;;;;0.97;0.60;;;4.60;99.10;;;;;;5139340;27;20739;-45
2022/01/09 00:38:36;;;;;;;1.10;0.50;;;4.60;99.10;;;;;;5138795;27;20432;-45
2022/01/09 00:41:01;;;;;;;2.70;0.50;;;4.60;99.20;;;;;;5137940;27;20170;-44
2022/01/09 00:43:27;;;;;;;0.70;0.30;;;4.60;99.00;;;;;;5138079;27;20211;-45
2022/01/09 00:45:53;;;;;;;0.70;0.27;;;4.50;99.10;;;;;;5138185;27;20163;-44
2022/01/09 00:48:18;;;;;;;1.40;0.60;;;4.50;99.20;;;;;;5139059;27;20216;-45
2022/01/09 00:50:44;;;;;;;1.00;0.43;;;4.50;99.30;;;;;;5139011;27;20183;-45
2022/01/09 00:53:09;;;;;;;2.03;0.50;;;4.50;99.40;;;;;;5138969;27;20492;-45
2022/01/09 00:55:37;;;;;;;1.13;1.00;;;4.50;99.30;;;;;;5138955;27;20312;-44
2022/01/09 00:58:03;;;;;;;1.00;0.40;;;4.50;99.30;;;;;;5138916;27;20175;-45
2022/01/09 01:00:31;;;;;;;0.80;0.40;;;4.50;99.40;;;;;;5139312;27;20439;-45
2022/01/09 01:02:58;;;;;;;0.80;0.50;;;4.50;99.50;;;;;;5139129;27;20179;-45
2022/01/09 01:05:25;;;;;;;0.83;0.40;;;4.50;99.60;;;;;;5139066;27;20431;-45
2022/01/09 01:07:51;;;;;;;0.90;0.50;;;4.50;99.60;;;;;;5139180;27;20413;-45
2022/01/09 01:10:17;;;;;;;0.60;0.30;;;4.50;99.70;;;;;;5138870;27;20435;-45
2022/01/09 01:12:42;;;;;;;1.67;0.53;;;4.50;99.80;;;;;;5139304;27;20529;-44
2022/01/09 01:15:09;;;;;;;0.70;0.40;;;4.50;99.80;;;;;;5139062;28;20184;-44
2022/01/09 01:17:36;;;;;;;0.70;0.40;;;4.50;99.70;;;;;;5139297;28;20197;-45
2022/01/09 01:20:03;;;;;;;0.70;0.30;;;4.50;99.70;;;;;;5120732;28;20532;-45
2022/01/09 01:22:30;;;;;;;0.70;0.27;;;4.50;99.80;;;;;;5138845;28;20432;-45
2022/01/09 01:24:57;;;;;;;1.30;0.40;;;4.50;99.80;;;;;;5138519;28;20767;-45
2022/01/09 01:27:22;;;;;;;0.80;0.40;;;4.50;99.80;;;;;;5104388;27;20461;-45
2022/01/09 01:29:48;;;;;;;0.70;0.40;;;4.50;99.90;;;;;;5142806;27;20444;-45
2022/01/09 01:32:14;;;;;;;0.80;0.30;;;4.60;99.90;;;;;;5142688;27;20584;-45
2022/01/09 01:34:39;;;;;;;0.73;0.40;;;4.50;99.90;;;;;;5143325;27;20542;-44
2022/01/09 01:37:05;;;;;;;1.10;0.30;;;4.50;99.90;;;;;;5142797;27;20175;-45
2022/01/09 01:39:31;;;;;;;1.10;0.40;;;4.50;99.90;;;;;;5143207;27;20178;-45
2022/01/09 01:41:56;;;;;;;0.70;0.30;;;4.50;99.90;;;;;;5143214;27;20451;-45
2022/01/09 01:44:25;;;;;;;1.00;0.30;;;4.50;99.90;;;;;;5143325;27;20577;-44
2022/01/09 01:46:53;;;;;;;0.80;0.30;;;4.50;99.90;;;;;;5143121;27;20187;-44
2022/01/09 01:49:18;;;;;;;0.70;0.20;;;4.50;99.90;;;;;;5142794;27;20416;-44
2022/01/09 01:51:44;;;;;;;0.63;0.30;;;4.50;99.90;;;;;;5124486;27;20478;-43
2022/01/09 01:54:11;;;;;;;0.80;0.23;;;4.50;99.90;;;;;;5124420;27;20190;-43
2022/01/09 01:56:37;;;;;;;0.70;0.30;;;4.50;99.90;;;;;;5142484;27;20225;-44
2022/01/09 01:59:03;;;;;;;0.70;0.27;;;4.50;99.90;;;;;;5142886;27;20473;-44
2022/01/09 02:01:28;;;;;;;0.80;0.37;;;4.60;99.90;;;;;;5142428;27;20433;-45
2022/01/09 02:03:54;;;;;;;1.13;0.57;;;4.50;99.90;;;;;;5142296;27;20175;-44
2022/01/09 02:07:03;;;;;;;0.60;0.30;;;4.50;99.90;;;;;;5142492;27;20277;-44
2022/01/09 02:09:29;;;;;;;0.70;0.30;;;4.60;99.90;;;;;;5142792;27;20537;-44
2022/01/09 02:11:54;;;;;;;0.70;0.30;;;4.50;99.90;;;;;;5142505;27;20475;-44
2022/01/09 02:14:20;;;;;;;0.70;0.30;;;4.60;99.90;;;;;;5142261;27;20210;-44
2022/01/09 02:16:48;;;;;;;0.73;0.37;;;4.60;99.90;;;;;;5142239;27;20176;-44
2022/01/09 02:19:15;;;;;;;0.80;0.53;;;4.60;99.90;;;;;;5141963;27;20230;-44
2022/01/09 02:21:42;;;;;;;0.60;0.20;;;4.60;99.90;;;;;;5142437;27;20768;-44
2022/01/09 02:24:08;;;;;;;0.70;0.30;;;4.60;99.90;;;;;;5141937;27;20452;-44
2022/01/09 02:26:34;;;;;;;0.67;0.30;;;4.60;99.90;;;;;;5142697;27;20462;-44
2022/01/09 02:29:02;;;;;;;0.90;0.40;;;4.60;99.90;;;;;;5141009;27;20189;-43
2022/01/09 02:31:27;;;;;;;0.90;0.30;;;4.60;99.90;;;;;;5141566;27;20436;-44
2022/01/09 02:33:53;;;;;;;0.70;0.40;;;4.60;99.90;;;;;;5141210;27;20597;-44
2022/01/09 02:36:18;;;;;;;0.80;0.30;;;4.60;99.90;;;;;;5141067;27;20465;-44
2022/01/09 02:38:46;;;;;;;0.60;0.30;;;4.60;99.90;;;;;;5141256;27;20187;-44
2022/01/09 02:41:12;;;;;;;0.60;0.20;;;4.60;99.90;;;;;;5141080;27;20199;-44
2022/01/09 02:43:38;;;;;;;0.60;0.27;;;4.60;99.90;;;;;;5141458;27;20739;-44
2022/01/09 02:48:33;;;;;;;1.10;0.40;;;4.50;99.90;;;;;;5141012;27;20421;-44
2022/01/09 02:51:13;;;;;;;0.60;0.37;;;4.50;99.90;;;;;;5140725;27;20175;-44
2022/01/09 02:53:40;;;;;;;0.73;0.30;;;4.50;99.90;;;;;;5140849;27;20423;-44
2022/01/09 02:56:07;;;;;;;0.60;0.27;;;4.50;99.90;;;;;;5140634;27;20561;-44
2022/01/09 02:58:33;;;;;;;0.87;0.60;;;4.50;99.90;;;;;;5140818;27;20429;-44
2022/01/09 03:00:59;;;;;;;0.60;0.30;;;4.50;99.90;;;;;;5141372;27;20807;-44
2022/01/09 03:03:25;;;;;;;0.70;0.30;;;4.40;99.90;;;;;;5140652;27;20461;-44
2022/01/09 03:05:50;;;;;;;0.80;0.30;;;4.40;99.90;;;;;;5122704;27;20433;-43
2022/01/09 03:08:16;;;;;;;0.90;0.30;;;4.40;99.90;;;;;;5141363;27;20519;-44
2022/01/09 03:10:42;;;;;;;0.80;0.40;;;4.50;99.90;;;;;;5141080;27;20183;-44
2022/01/09 03:13:07;;;;;;;0.90;0.30;;;4.50;99.90;;;;;;5122953;27;20207;-44
2022/01/09 03:15:34;;;;;;;0.83;0.30;;;4.50;99.90;;;;;;5140939;27;20235;-44
2022/01/09 03:17:59;;;;;;;0.70;0.30;;;4.50;99.90;;;;;;5141246;27;20432;-45
2022/01/09 03:20:26;;;;;;;0.60;0.30;;;4.50;99.90;;;;;;5140657;27;20424;-45
2022/01/09 03:22:54;;;;;;;1.10;0.40;;;4.60;99.90;;;;;;5140648;27;20470;-45
2022/01/09 03:25:21;;;;;;;1.87;0.60;;;4.60;99.90;;;;;;5140518;27;21012;-45
2022/01/09 03:27:49;;;;;;;0.70;0.30;;;4.60;99.90;;;;;;5140629;27;20425;-45
2022/01/09 03:30:16;;;;;;;1.37;0.40;;;4.60;99.90;;;;;;5140512;27;20435;-45
2022/01/09 03:32:42;;;;;;;0.80;0.50;;;4.60;99.90;;;;;;5140685;27;20465;-45
2022/01/09 03:35:11;;;;;;;0.80;0.30;;;4.60;99.90;;;;;;5122014;27;20900;-44
2022/01/09 03:37:37;;;;;;;0.87;0.30;;;4.60;99.90;;;;;;5140984;27;20432;-45
2022/01/09 03:40:04;;;;;;;0.80;0.30;;;4.70;99.90;;;;;;5140706;27;20508;-45
2022/01/09 03:42:30;;;;;;;0.70;0.37;;;4.60;99.90;;;;;;5140533;27;20433;-44
2022/01/09 03:44:56;;;;;;;0.77;0.40;;;4.70;99.90;;;;;;5140474;27;20417;-45
2022/01/09 03:47:21;;;;;;;0.77;0.40;;;4.70;99.90;;;;;;5140441;27;20182;-45
2022/01/09 03:49:47;;;;;;;0.87;0.40;;;4.70;99.90;;;;;;5138839;27;20582;-43
2022/01/09 03:52:14;;;;;;;0.70;0.40;;;4.70;99.90;;;;;;5139853;27;20225;-45
2022/01/09 03:54:42;;;;;;;0.90;0.40;;;4.70;99.90;;;;;;5139225;27;20243;-45
2022/01/09 03:57:07;;;;;;;0.67;0.30;;;4.70;99.90;;;;;;5138821;27;20985;-44
2022/01/09 03:59:33;;;;;;;0.90;0.43;;;4.60;99.90;;;;;;5138741;27;20489;-45
2022/01/09 04:01:58;;;;;;;0.80;0.30;;;4.70;99.90;;;;;;5138974;27;20180;-45
2022/01/09 04:04:24;;;;;;;0.60;0.30;;;4.70;99.90;;;;;;5139058;27;20206;-45
2022/01/09 04:06:50;;;;;;;0.70;0.40;;;4.60;99.90;;;;;;5138725;27;20256;-45
2022/01/09 04:09:59;;;;;;;0.90;0.43;;;4.60;99.90;;;;;;5138952;27;20549;-45
2022/01/09 04:12:14;;;;;;;0.80;0.40;;;4.70;99.90;;;;;;5128243;27;20483;-44
2022/01/09 04:14:42;;;;;;;0.73;0.33;;;4.70;99.90;;;;;;5121875;27;20439;-44
2022/01/09 04:17:13;;;;;;;0.80;0.40;;;4.70;99.90;;;;;;5139759;27;20422;-44
2022/01/09 04:19:39;;;;;;;0.60;0.27;;;4.70;99.90;;;;;;5139862;27;20470;-45
2022/01/09 04:22:04;;;;;;;0.70;0.40;;;4.70;99.90;;;;;;5139490;27;20421;-45
2022/01/09 04:24:32;;;;;;;0.60;0.30;;;4.70;99.90;;;;;;5121314;27;20186;-45
2022/01/09 04:26:58;;;;;;;0.80;0.50;;;4.70;99.90;;;;;;5138350;27;20179;-46
2022/01/09 04:29:23;;;;;;;0.93;0.20;;;4.70;99.90;;;;;;5138568;27;20438;-45
2022/01/09 04:31:49;;;;;;;1.10;0.50;;;4.70;99.90;;;;;;5138581;27;20297;-45
2022/01/09 04:34:15;;;;;;;1.00;0.40;;;4.70;99.90;;;;;;5138386;27;20182;-43
2022/01/09 04:36:40;;;;;;;0.60;0.20;;;4.70;99.90;;;;;;5119854;27;20205;-44
2022/01/09 04:39:06;;;;;;;0.60;0.20;;;4.70;99.90;;;;;;5138251;27;20187;-44
2022/01/09 04:41:32;;;;;;;0.70;0.30;;;4.70;99.90;;;;;;5139282;27;20186;-44
2022/01/09 04:43:57;;;;;;;0.67;0.30;;;4.70;99.90;;;;;;5139220;27;20190;-45
2022/01/09 04:46:31;;;;;;;0.70;0.30;;;4.70;99.90;;;;;;5139359;27;20432;-45
2022/01/09 04:48:59;;;;;;;1.10;0.30;;;4.70;99.90;;;;;;5139017;27;20185;-45
2022/01/09 04:51:25;;;;;;;0.70;0.30;;;4.70;99.90;;;;;;5139570;27;20446;-45
2022/01/09 04:53:50;;;;;;;0.73;0.23;;;4.60;99.90;;;;;;5139004;27;20849;-45
2022/01/09 04:56:16;;;;;;;0.60;0.20;;;4.60;99.90;;;;;;5138654;27;20299;-45
2022/01/09 04:58:42;;;;;;;0.60;0.20;;;4.50;99.90;;;;;;5139451;27;20214;-46
2022/01/09 05:01:08;;;;;;;0.87;0.20;;;4.40;99.90;;;;;;5139430;27;20420;-45
2022/01/09 05:03:33;;;;;;;0.60;0.20;;;4.40;99.90;;;;;;5121123;27;20186;-49
2022/01/09 05:05:59;;;;;;;0.60;0.20;;;4.30;99.90;;;;;;5139628;27;20228;-42
2022/01/09 05:08:24;;;;;;;0.60;0.20;;;4.30;99.90;;;;;;5139587;27;20175;-41
2022/01/09 05:10:50;;;;;;;0.60;0.20;;;4.30;99.90;;;;;;5139454;27;20474;-42
2022/01/09 05:13:16;;;;;;;0.60;0.20;;;4.30;99.90;;;;;;5140867;27;20217;-42
2022/01/09 05:15:42;;;;;;;0.60;0.23;;;4.30;99.90;;;;;;5140840;27;20183;-44
2022/01/09 05:18:16;;;;;;;0.60;0.20;;;4.20;99.90;;;;;;5139403;28;20163;-43
2022/01/09 05:20:43;;;;;;;0.60;0.30;;;4.20;99.90;;;;;;5122311;28;20415;-41
2022/01/09 05:23:09;;;;;;;0.60;0.20;;;4.20;99.90;;;;;;5139127;28;20505;-41
2022/01/09 05:25:35;;;;;;;0.70;0.20;;;4.20;99.90;;;;;;5139309;28;20436;-42
2022/01/09 05:28:00;;;;;;;0.63;0.30;;;4.20;99.90;;;;;;5139304;28;20462;-42
2022/01/09 05:30:26;;;;;;;0.70;0.30;;;4.20;99.90;;;;;;5139196;28;20275;-40
2022/01/09 05:32:51;;;;;;;0.80;0.23;;;4.10;99.60;;;;;;5139205;28;20203;-41
2022/01/09 05:35:17;;;;;;;0.70;0.30;;;4.00;99.60;;;;;;5138367;28;20173;-40
2022/01/09 05:37:42;;;;;;;0.63;0.20;;;4.00;99.90;;;;;;5138191;28;20175;-42
2022/01/09 05:40:12;;;;;;;0.70;0.30;;;3.90;99.80;;;;;;5138276;28;20642;-40
2022/01/09 05:42:37;;;;;;;0.60;0.23;;;3.90;99.90;;;;;;5138660;28;20190;-41
2022/01/09 05:45:05;;;;;;;0.80;0.27;;;3.90;99.90;;;;;;5120432;28;20429;-41
2022/01/09 05:47:30;;;;;;;0.70;0.20;;;3.90;99.90;;;;;;5137943;28;20267;-41
2022/01/09 05:49:56;;;;;;;0.60;0.27;;;3.90;99.90;;;;;;5103425;28;20536;-41
2022/01/09 05:52:24;;;;;;;0.60;0.20;;;3.90;99.90;;;;;;5138492;28;20541;-41
2022/01/09 05:54:52;;;;;;;0.60;0.20;;;3.80;99.90;;;;;;5138368;28;20186;-41
2022/01/09 05:57:18;;;;;;;0.77;0.37;;;3.90;99.90;;;;;;5137616;28;20408;-42
2022/01/09 05:59:46;;;;;;;0.60;0.20;;;3.80;99.90;;;;;;5136730;28;20850;-41
2022/01/09 06:02:11;;;;;;;1.73;0.47;;;3.90;99.90;;;;;;5137955;28;20182;-41
2022/01/09 06:04:37;;;;;;;2.10;0.30;;;3.90;99.90;;;;;;5137958;28;20528;-41
2022/01/09 06:07:03;;;;;;;0.80;0.40;;;3.90;99.90;;;;;;5138322;28;20194;-41
2022/01/09 06:09:28;;;;;;;1.17;0.37;;;3.90;99.90;;;;;;5137945;28;20473;-39
2022/01/09 06:11:57;;;;;;;0.80;0.30;;;3.90;99.90;;;;;;5137547;28;20207;-39
2022/01/09 06:14:24;;;;;;;0.80;0.40;;;3.90;99.90;;;;;;5139381;27;20435;-40
2022/01/09 06:16:49;;;;;;;1.73;0.30;;;3.90;99.90;;;;;;5141667;27;20407;-41
2022/01/09 06:19:15;;;;;;;0.80;0.37;;;3.90;99.90;;;;;;5140963;27;20427;-40
2022/01/09 06:21:40;;;;;;;0.60;0.20;;;3.90;99.90;;;;;;5141701;27;20174;-40
2022/01/09 06:24:06;;;;;;;0.97;0.30;;;3.90;99.90;;;;;;5140372;27;20202;-40
2022/01/09 06:26:32;;;;;;;0.60;0.20;;;3.90;99.90;;;;;;5140369;27;20270;-42
2022/01/09 06:28:57;;;;;;;0.80;0.30;;;3.80;99.90;;;;;;5141167;27;20431;-40
2022/01/09 06:31:23;;;;;;;0.90;0.30;;;3.80;99.90;;;;;;5140988;27;20196;-39
2022/01/09 06:33:49;;;;;;;0.60;0.30;;;3.70;99.90;;;;;;5141200;27;20546;-41
2022/01/09 06:36:15;;;;;;;0.80;0.30;;;3.70;99.90;;;;;;5123181;27;20209;-41
2022/01/09 06:38:40;;;;;;;0.70;0.30;;;3.70;99.90;;;;;;5140730;27;20185;-41
2022/01/09 06:41:06;;;;;;;0.60;0.30;;;3.70;99.90;;;;;;5141307;27;20485;-40
2022/01/09 06:43:32;;;;;;;0.70;0.30;;;3.70;99.90;;;;;;5141641;27;20180;-41
2022/01/09 06:45:58;;;;;;;0.80;0.30;;;3.70;99.90;;;;;;5141990;27;20190;-40
2022/01/09 06:48:23;;;;;;;1.53;0.30;;;3.70;99.90;;;;;;5142349;27;20441;-40
2022/01/09 06:50:49;;;;;;;0.70;0.27;;;3.60;99.90;;;;;;5141813;27;20179;-41
2022/01/09 06:53:14;;;;;;;0.77;0.33;;;3.60;99.90;;;;;;5141458;27;20539;-41
2022/01/09 06:55:40;;;;;;;1.00;0.40;;;3.60;99.90;;;;;;5141596;27;20227;-41
2022/01/09 06:58:06;;;;;;;0.70;0.23;;;3.60;99.90;;;;;;5141406;27;20206;-41
2022/01/09 07:00:32;;;;;;;1.00;0.40;;;3.60;99.90;;;;;;5141651;27;20486;-41
2022/01/09 07:02:57;;;;;;;0.70;0.30;;;3.50;99.90;;;;;;5141536;27;20187;-42
2022/01/09 07:05:23;;;;;;;0.70;0.33;;;3.50;99.90;;;;;;5106447;27;20184;-40
2022/01/09 07:07:49;;;;;;;1.27;0.40;;;3.50;99.90;;;;;;5123294;27;20191;-43
2022/01/09 07:10:17;;;;;;;0.70;0.30;;;3.50;99.90;;;;;;5140708;27;20267;-41
2022/01/09 07:12:42;;;;;;;0.87;0.40;;;3.50;99.90;;;;;;5141372;27;20219;-41
2022/01/09 07:15:09;;;;;;;0.70;0.30;;;3.50;99.90;;;;;;5140127;27;20447;-42
2022/01/09 07:17:35;;;;;;;1.33;0.50;;;3.50;99.90;;;;;;5140470;27;20171;-41
2022/01/09 07:20:00;;;;;;;0.80;0.50;;;3.50;99.90;;;;;;5139805;27;20506;-43
2022/01/09 07:22:27;;;;;;;1.63;0.93;;;3.50;99.90;;;;;;5140102;27;20442;-43
2022/01/09 07:24:53;;;;;;;2.20;0.70;;;3.50;99.90;;;;;;5139835;27;20712;-42
2022/01/09 07:27:19;;;;;;;2.23;0.80;;;3.50;99.90;;;;;;5139817;27;20425;-42
2022/01/09 07:29:44;;;;;;;2.70;0.93;;;3.50;99.90;;;;;;5140161;27;20847;-42
2022/01/09 07:32:10;;;;;;;1.57;0.80;;;3.50;99.90;;;;;;5139387;27;20203;-41
2022/01/09 07:34:36;;;;;;;2.97;1.00;;;3.50;99.90;;;;;;5140770;27;20201;-43
2022/01/09 07:37:01;;;;;;;4.30;1.60;;;3.60;99.90;;;;;;5140959;27;20480;-42
2022/01/09 07:39:28;;;;;;;3.03;1.43;;;3.60;99.90;;;;;;5140742;27;20171;-40
2022/01/09 07:41:54;;;;;;;3.10;1.50;;;3.60;99.90;;;;;;5140548;27;20620;-41
2022/01/09 07:44:20;;;;;;;3.10;1.20;;;3.60;99.70;;;;;;5105338;28;20445;-39
2022/01/09 07:46:49;;;;;;;8.00;1.90;;;3.60;99.40;;;;;;5119406;28;20862;-41
2022/01/09 07:49:14;;;;;;;8.57;1.80;;;3.70;99.10;;;;;;5119345;28;20927;-41
2022/01/09 07:51:42;;;;;;;5.90;1.90;;;3.70;99.20;;;;;;5119273;28;20465;-42
2022/01/09 07:54:08;;;;;;;5.33;1.40;;;3.70;98.90;;;;;;5119281;28;20255;-41
2022/01/09 07:56:34;;;;;;;7.67;2.10;;;3.70;98.90;;;;;;5119387;28;20923;-43
2022/01/09 07:58:59;;;;;;;3.50;1.57;;;3.70;98.90;;;;;;5119496;28;20172;-41
2022/01/09 08:01:25;;;;;;;4.40;1.53;;;3.80;99.00;;;;;;5119724;28;20309;-42
2022/01/09 08:03:53;;;;;;;5.50;1.50;;;3.80;98.80;;;;;;5119963;28;20325;-41
2022/01/09 08:06:18;;;;;;;5.73;1.47;;;3.80;98.60;;;;;;5120007;28;20168;-41
2022/01/09 08:08:44;;;;;;;3.63;1.30;;;3.90;98.30;;;;;;5119569;28;21126;-41
2022/01/09 08:11:12;;;;;;;3.90;1.60;;;3.90;98.10;;;;;;5119777;28;20176;-40
2022/01/09 08:13:38;;;;;;;7.77;1.40;;;3.90;98.00;;;;;;5119291;28;20238;-40
2022/01/09 08:16:04;;;;;;;4.80;1.40;;;4.00;97.60;;;;;;5119078;28;20838;-43
2022/01/09 08:18:29;;;;;;;5.60;1.60;;;4.00;97.40;;;;;;5122299;27;20283;-41
2022/01/09 08:20:55;;;;;;;8.47;2.03;;;4.10;97.20;;;;;;5130731;27;20180;-41
2022/01/09 08:23:20;;;;;;;5.80;2.00;;;4.10;97.20;;;;;;5139884;27;20187;-41
2022/01/09 08:25:46;;;;;;;6.10;1.57;;;4.20;97.20;;;;;;5139226;27;20200;-41
2022/01/09 08:28:12;;;;;;;4.93;2.10;;;4.20;97.30;;;;;;5138802;27;20205;-41
2022/01/09 08:30:37;;;;;;;5.93;2.60;;;4.30;97.30;;;;;;5138059;27;20197;-40
2022/01/09 08:33:03;;;;;;;5.57;1.90;;;4.40;97.00;;;;;;5139747;27;20202;-40
2022/01/09 08:35:29;;;;;;;6.20;1.60;;;4.50;96.90;;;;;;5139564;27;20190;-41
2022/01/09 08:37:55;;;;;;;4.83;2.30;;;4.60;96.70;;;;;;5139266;27;20510;-41
2022/01/09 08:40:22;;;;;;;5.00;1.77;;;4.60;96.10;;;;;;5138429;27;20171;-42
2022/01/09 08:42:49;;;;;;;2.77;1.30;;;4.70;95.80;;;;;;5138225;27;20573;-40
2022/01/09 08:45:16;;;;;;;2.97;1.20;;;4.80;95.50;;;;;;5137183;27;20780;-41
2022/01/09 08:47:43;;;;;;;3.30;1.47;;;4.90;95.40;;;;;;5137523;27;20507;-41
2022/01/09 08:50:10;;;;;;;5.70;1.80;;;4.90;95.30;;;;;;5136622;27;20481;-41
2022/01/09 08:52:35;;;;;;;5.53;1.40;;;5.00;95.10;;;;;;5136582;27;20920;-42
2022/01/09 08:55:05;;;;;;;5.50;1.73;;;5.00;95.40;;;;;;5137181;27;20469;-41
2022/01/09 08:57:31;;;;;;;5.50;2.00;;;5.20;95.00;;;;;;5136766;27;20462;-40
2022/01/09 08:59:57;;;;;;;2.57;1.40;;;5.20;94.70;;;;;;5137374;27;20439;-40
2022/01/09 09:02:25;;;;;;;7.53;1.90;;;5.40;94.80;;;;;;5137805;27;20185;-40
2022/01/09 09:04:50;;;;;;;6.10;1.57;;;5.50;94.90;;;;;;5138279;27;20416;-40
2022/01/09 09:07:18;;;;;;;9.27;2.43;;;5.80;94.90;;;;;;5137511;27;20513;-40
2022/01/09 09:09:45;;;;;;;6.20;1.37;;;6.10;94.60;;;;;;5137563;27;20231;-40
2022/01/09 09:12:11;;;;;;;1.93;0.93;;;6.50;94.10;;;;;;5138344;27;20554;-41
2022/01/09 09:14:37;;;;;;;5.67;1.47;;;6.90;93.50;;;;;;5120606;27;20405;-40
2022/01/09 09:17:05;;;;;;;4.50;1.83;;;7.40;92.70;;;;;;5138099;27;20693;-40
2022/01/09 09:19:31;;;;;;;6.97;2.40;;;7.80;91.70;;;;;;5104189;28;20421;-40
2022/01/09 09:21:57;;;;;;;5.30;1.90;;;8.40;91.40;;;;;;5139052;28;20515;-42
2022/01/09 09:24:23;;;;;;;3.90;1.73;;;9.20;90.80;;;;;;5138053;28;20593;-41
2022/01/09 09:26:48;;;;;;;3.43;1.70;;;10.20;88.70;;;;;;5138785;28;20499;-41
2022/01/09 09:29:14;;;;;;;4.07;1.87;;;11.40;84.60;;;;;;5137467;28;20175;-41
2022/01/09 09:31:40;;;;;;;3.57;1.87;;;12.70;79.10;;;;;;5119677;28;20228;-43
2022/01/09 09:34:08;;;;;;;4.00;1.70;;;13.70;72.40;;;;;;5138247;28;20174;-40
2022/01/09 09:36:36;;;;;;;6.33;2.47;;;13.90;68.10;;;;;;5136733;28;20594;-40
2022/01/09 09:39:04;;;;;;;3.60;1.50;;;13.60;65.30;;;;;;5137122;28;20419;-40
2022/01/09 09:41:30;;;;;;;2.70;1.60;;;13.70;65.50;;;;;;5136122;28;20498;-41
2022/01/09 09:43:56;;;;;;;3.20;1.83;;;14.30;64.70;;;;;;5136095;28;20520;-41
2022/01/09 09:46:25;;;;;;;3.20;1.53;;;15.50;61.10;;;;;;5135689;28;20207;-39
2022/01/09 09:48:52;;;;;;;4.80;1.90;;;16.10;57.90;;;;;;5118490;27;20244;-42
2022/01/09 09:51:17;;;;;;;4.13;1.63;;;15.80;56.20;;;;;;5140347;27;20877;-41
2022/01/09 09:53:43;;;;;;;6.13;1.90;;;15.00;56.00;;;;;;5139444;27;20663;-40
2022/01/09 09:56:11;;;;;;;3.70;1.33;;;14.00;56.40;;;;;;5140956;27;20236;-43
2022/01/09 09:58:45;;;;;;;3.17;1.80;;;13.00;57.90;;;;;;5141351;27;20203;-43
2022/01/09 10:01:24;;;;;;;3.57;1.70;;;12.20;59.20;;;;;;5138999;27;20406;-40
2022/01/09 10:04:08;;;;;;;2.90;1.70;;;11.60;60.60;;;;;;5121748;27;20455;-39
2022/01/09 10:06:40;;;;;;;4.30;1.90;;;11.00;63.10;;;;;;5141976;27;20420;-40
2022/01/09 10:09:14;;;;;;;3.87;1.77;;;10.70;65.50;;;;;;5141615;27;20436;-40
2022/01/09 10:11:42;;;;;;;7.23;2.17;;;10.50;66.50;;;;;;5140975;27;20464;-40
2022/01/09 10:14:25;;;;;;;2.37;1.10;;;10.30;67.70;;;;;;5140511;27;20448;-39
2022/01/09 10:17:13;;;;;;;2.13;1.20;;;10.80;81.40;;;;;;5140464;27;20412;-39
2022/01/09 10:19:59;;;;;;;3.30;1.10;;;11.80;90.60;;;;;;5140969;27;20408;-40
2022/01/09 10:22:27;;;;;;;1.73;0.70;;;12.80;88.00;;;;;;5140625;27;20498;-42
2022/01/09 10:24:53;;;;;;;4.10;1.37;;;14.00;89.20;;;;;;5140726;27;20404;-40
2022/01/09 10:27:33;;;;;;;3.87;1.40;;;15.40;82.80;;;;;;5140587;27;20507;-41
2022/01/09 10:29:59;;;;;;;4.90;1.53;;;16.90;70.30;;;;;;5140580;27;20444;-42
2022/01/09 10:32:30;;;;;;;3.20;1.40;;;17.70;57.80;;;;;;5138903;27;20456;-41
2022/01/09 10:35:11;;;;;;;2.87;2.00;;;17.50;53.40;;;;;;5138555;27;20427;-40
2022/01/09 10:37:37;;;;;;;8.27;2.03;;;16.50;51.70;;;;;;5139385;27;20458;-40
2022/01/09 10:40:05;;;;;;;5.90;2.40;;;15.30;52.30;;;;;;5140109;27;20419;-40
2022/01/09 10:42:31;;;;;;;3.90;1.60;;;14.40;53.90;;;;;;5139287;27;20407;-41
2022/01/09 10:45:24;;;;;;;4.90;1.47;;;13.70;55.10;;;;;;5139226;27;20420;-40
2022/01/09 10:47:55;;;;;;;2.80;1.20;;;13.00;56.70;;;;;;5122795;27;20456;-43
2022/01/09 10:50:26;;;;;;;4.50;1.60;;;12.70;57.60;;;;;;5139049;27;20426;-41
2022/01/09 10:52:55;;;;;;;3.33;1.27;;;12.90;59.90;;;;;;5104404;27;20507;-43
2022/01/09 10:55:22;;;;;;;4.03;1.57;;;13.70;59.60;;;;;;5121146;27;20503;-41
2022/01/09 10:57:48;;;;;;;3.00;1.50;;;14.70;58.20;;;;;;5122408;27;20507;-41
2022/01/09 11:00:16;;;;;;;2.80;1.37;;;15.80;56.40;;;;;;5105389;27;20459;-40
2022/01/09 11:02:44;;;;;;;3.73;1.33;;;16.60;54.50;;;;;;5122381;27;20586;-41
2022/01/09 11:05:10;;;;;;;2.90;1.60;;;17.20;53.30;;;;;;5139482;27;20979;-41
2022/01/09 11:07:36;;;;;;;4.63;1.70;;;17.80;52.40;;;;;;5138370;27;20432;-41
2022/01/09 11:10:03;;;;;;;2.53;1.40;;;17.90;50.90;;;;;;5138047;27;20181;-42
2022/01/09 11:12:35;;;;;;;2.57;1.67;;;17.20;50.70;;;;;;5139633;27;20466;-42
2022/01/09 11:15:02;;;;;;;2.53;1.40;;;16.90;50.90;;;;;;5122172;27;20408;-44
2022/01/09 11:17:29;;;;;;;3.73;1.37;;;16.40;50.80;;;;;;5138681;27;20492;-43
2022/01/09 11:19:55;;;;;;;3.60;2.07;;;16.40;52.00;;;;;;5121884;27;20408;-41
2022/01/09 11:22:21;;;;;;;3.57;2.00;;;16.20;51.80;;;;;;5137192;27;20417;-42
2022/01/09 11:25:02;;;;;;;3.93;1.90;;;15.90;52.10;;;;;;5118234;27;20704;-43
2022/01/09 11:27:37;;;;;;;2.10;1.43;;;16.00;52.50;;;;;;5135764;27;20431;-42
2022/01/09 11:30:20;;;;;;;2.20;1.33;;;16.10;52.70;;;;;;5135761;27;20414;-42
2022/01/09 11:33:16;;;;;;;3.00;1.47;;;17.00;52.60;;;;;;5136159;27;20464;-42
2022/01/09 11:35:50;;;;;;;2.70;1.17;;;18.80;50.60;;;;;;5120709;27;20411;-41
2022/01/09 11:38:25;;;;;;;2.93;1.13;;;20.80;49.30;;;;;;5138884;27;20432;-41
2022/01/09 11:40:50;;;;;;;2.03;1.23;;;22.60;46.30;;;;;;5140004;27;20690;-44
2022/01/09 11:43:19;;;;;;;4.10;2.17;;;23.40;43.90;;;;;;5139663;27;20446;-42
2022/01/09 11:45:57;;;;;;;2.03;0.90;;;23.10;41.70;;;;;;5139723;27;20186;-42
2022/01/09 11:48:51;;;;;;;2.57;1.27;;;23.20;40.40;;;;;;5138781;27;20455;-41
2022/01/09 11:51:21;;;;;;;3.57;1.20;;;22.70;40.30;;;;;;5138833;27;20411;-43
2022/01/09 11:54:12;;;;;;;1.97;1.20;;;21.40;40.60;;;;;;5139069;27;20792;-42
2022/01/09 11:56:51;;;;;;;2.00;1.30;;;20.50;41.30;;;;;;5140028;27;20628;-42
2022/01/09 11:59:47;;;;;;;2.33;1.30;;;19.70;41.70;;;;;;5138924;27;20422;-40
2022/01/09 12:02:12;;;;;;;2.67;1.50;;;19.40;42.00;;;;;;5135898;27;20425;-42
2022/01/09 12:04:41;;;;;;;4.53;1.60;;;18.80;41.60;;;;;;5139789;27;20445;-41
2022/01/09 12:07:12;;;;;;;2.83;1.53;;;17.90;42.10;;;;;;5139653;27;20175;-43
2022/01/09 12:09:42;;;;;;;3.33;1.40;;;16.80;43.20;;;;;;5138970;27;20439;-44
2022/01/09 12:12:21;;;;;;;2.17;1.40;;;15.80;44.10;;;;;;5138291;27;20456;-42
2022/01/09 12:14:56;;;;;;;2.60;1.50;;;14.90;45.20;;;;;;5139989;27;20413;-42
2022/01/09 12:17:28;;;;;;;5.23;1.80;;;14.10;46.30;;;;;;5139098;27;20698;-42
2022/01/09 12:19:54;;;;;;;3.70;1.60;;;13.60;46.90;;;;;;5139205;27;20475;-42
2022/01/09 12:22:43;;;;;;;4.10;1.57;;;13.00;48.00;;;;;;5139119;27;20492;-42
2022/01/09 12:25:24;;;;;;;3.40;1.53;;;12.60;48.70;;;;;;5138184;27;20175;-42
2022/01/09 12:28:06;;;;;;;4.20;1.67;;;12.20;49.60;;;;;;5137594;27;20420;-41
2022/01/09 12:30:54;;;;;;;4.40;1.60;;;11.90;50.30;;;;;;5139324;27;20427;-41
2022/01/09 12:33:34;;;;;;;3.33;1.43;;;11.70;50.50;;;;;;5138050;27;20503;-41
2022/01/09 12:36:14;;;;;;;3.43;1.57;;;11.40;51.40;;;;;;5138429;27;20816;-43
2022/01/09 12:38:44;;;;;;;3.77;1.50;;;11.40;52.00;;;;;;5138981;27;20421;-41
2022/01/09 12:41:25;;;;;;;3.03;1.10;;;12.30;54.00;;;;;;5121180;27;20454;-41
2022/01/09 12:43:58;;;;;;;2.13;1.30;;;14.70;54.30;;;;;;5138243;27;20425;-40
2022/01/09 12:46:24;;;;;;;3.17;1.13;;;16.30;49.70;;;;;;5137502;27;20482;-42
2022/01/09 12:48:58;;;;;;;3.67;1.40;;;16.60;46.60;;;;;;5137701;27;20448;-41
2022/01/09 12:51:26;;;;;;;4.13;1.63;;;16.40;46.20;;;;;;5137378;27;20809;-41
2022/01/09 12:53:58;;;;;;;3.93;1.57;;;15.90;46.10;;;;;;5137243;27;20421;-42
2022/01/09 12:56:29;;;;;;;3.47;1.60;;;15.30;46.90;;;;;;5102604;27;20489;-42
2022/01/09 12:58:57;;;;;;;4.03;1.50;;;14.80;47.20;;;;;;5137636;27;20413;-42
2022/01/09 13:01:36;;;;;;;3.23;1.40;;;14.20;47.30;;;;;;5136741;27;20411;-41
2022/01/09 13:04:22;;;;;;;3.47;1.10;;;13.80;47.60;;;;;;5122211;27;20496;-43